Time;durP1;ratioP1;P1;durP2;ratioP2;P2;SDS_P1;SDS_P2;PMS_P1;PMS_P2;Temp;Humidity;BMP_temperature;BMP_pressure;BME280_temperature;BME280_humidity;BME280_pressure;Samples;Min_cycle;Max_cycle;Signal;HPM_P1;HPM_P2
2021/01/28 00:01:08;;;;;;;36.63;21.37;;;;;;;-1.76;82.95;99380.33;1814296;78;25147;-67
2021/01/28 00:03:35;;;;;;;36.27;21.17;;;;;;;-1.78;82.96;99388.53;1810487;78;25680;-67
2021/01/28 00:06:03;;;;;;;33.50;21.17;;;;;;;-1.80;83.05;99386.45;1813712;77;25704;-67
2021/01/28 00:08:29;;;;;;;30.73;18.77;;;;;;;-1.82;83.12;99379.67;1801838;78;25111;-68
2021/01/28 00:10:56;;;;;;;34.40;20.03;;;;;;;-1.81;83.35;99378.77;1791504;78;25297;-67
2021/01/28 00:13:23;;;;;;;35.77;20.00;;;;;;;-1.82;83.47;99368.91;1805393;78;25187;-67
2021/01/28 00:15:49;;;;;;;32.20;19.57;;;;;;;-1.86;83.56;99384.05;1814874;78;25251;-67
2021/01/28 00:18:16;;;;;;;30.37;19.83;;;;;;;-1.90;83.61;99378.61;1801801;78;25285;-67
2021/01/28 00:20:46;;;;;;;33.03;19.73;;;;;;;-1.92;83.71;99374.79;1794242;77;25305;-67
2021/01/28 00:23:15;;;;;;;32.07;18.93;;;;;;;-1.94;83.86;99373.16;1796393;78;25348;-67
2021/01/28 00:25:43;;;;;;;31.53;20.30;;;;;;;-1.96;83.96;99378.36;1789982;78;25793;-68
2021/01/28 00:28:12;;;;;;;35.33;20.47;;;;;;;-1.99;83.92;99376.33;1781887;77;25676;-68
2021/01/28 00:30:43;;;;;;;30.83;21.13;;;;;;;-2.01;83.97;99384.52;1769064;79;25852;-68
2021/01/28 00:33:11;;;;;;;32.23;19.90;;;;;;;-2.03;84.01;99375.55;1757831;79;25299;-68
2021/01/28 00:35:41;;;;;;;31.10;19.67;;;;;;;-2.03;84.02;99380.70;1704883;82;25823;-68
2021/01/28 00:38:15;;;;;;;31.73;20.20;;;;;;;-2.02;84.10;99384.14;1724498;81;25806;-68
2021/01/28 00:40:50;;;;;;;31.70;19.47;;;;;;;-2.00;83.96;99374.17;1847076;76;26816;-68
2021/01/28 00:43:17;;;;;;;29.13;18.73;;;;;;;-2.05;84.15;99380.75;1802802;77;25253;-68
2021/01/28 00:45:44;;;;;;;28.50;18.70;;;;;;;-2.02;84.24;99377.25;1787581;79;25257;-68
2021/01/28 00:48:11;;;;;;;33.53;19.30;;;;;;;-1.99;84.22;99376.33;1787471;79;25341;-68
2021/01/28 00:50:38;;;;;;;32.83;19.97;;;;;;;-2.00;84.30;99365.16;1789360;78;25268;-69
2021/01/28 00:53:05;;;;;;;31.53;18.80;;;;;;;-2.01;84.47;99367.35;1801942;78;25708;-67
2021/01/28 00:55:32;;;;;;;30.67;18.97;;;;;;;-2.02;84.54;99362.23;1819944;77;25286;-67
2021/01/28 00:58:01;;;;;;;28.77;18.37;;;;;;;-1.99;84.57;99362.16;1819055;78;25630;-67
2021/01/28 01:00:37;;;;;;;34.23;19.80;;;;;;;-2.01;84.43;99355.75;1809839;78;25188;-67
2021/01/28 01:03:15;;;;;;;30.10;19.60;;;;;;;-1.97;84.37;99355.20;1849944;76;27429;-67
2021/01/28 01:05:43;;;;;;;31.23;19.60;;;;;;;-2.02;84.60;99356.62;1819450;77;25673;-68
2021/01/28 01:08:17;;;;;;;29.97;19.03;;;;;;;-2.03;84.55;99345.91;1819863;78;25768;-68
2021/01/28 01:10:52;;;;;;;30.80;18.77;;;;;;;-2.06;84.64;99349.44;1819342;77;25271;-68
2021/01/28 01:13:26;;;;;;;31.03;18.83;;;;;;;-2.06;84.58;99351.19;1819810;77;25602;-68
2021/01/28 01:15:55;;;;;;;33.93;19.13;;;;;;;-2.07;84.53;99349.03;1817899;77;25323;-67
2021/01/28 01:18:26;;;;;;;30.97;18.47;;;;;;;-2.09;84.55;99344.83;1819869;77;25349;-68
2021/01/28 01:20:53;;;;;;;31.53;18.83;;;;;;;-2.11;84.72;99340.14;1819780;77;25700;-68
2021/01/28 01:23:21;;;;;;;29.90;17.53;;;;;;;-2.13;84.89;99347.95;1819749;77;25202;-68
2021/01/28 01:26:08;;;;;;;31.60;18.37;;;;;;;-2.14;84.82;99335.95;1819484;78;25681;-67
2021/01/28 01:28:35;;;;;;;31.30;18.00;;;;;;;-2.17;84.87;99328.75;1794072;78;25310;-66
2021/01/28 01:31:04;;;;;;;31.67;19.03;;;;;;;-2.19;84.82;99322.81;1752503;80;25048;-68
2021/01/28 01:33:32;;;;;;;30.63;18.17;;;;;;;-2.24;84.87;99318.62;1783900;80;25269;-68
2021/01/28 01:36:11;;;;;;;28.17;17.27;;;;;;;-2.22;84.85;99312.59;1804594;77;26894;-66
2021/01/28 01:38:39;;;;;;;29.83;18.60;;;;;;;-2.31;85.07;99309.86;1782214;80;25606;-68
2021/01/28 01:41:06;;;;;;;26.63;16.07;;;;;;;-2.36;85.00;99305.26;1783647;79;25239;-68
2021/01/28 01:43:34;;;;;;;28.03;17.30;;;;;;;-2.36;85.28;99292.37;1774584;80;25311;-67
2021/01/28 01:46:06;;;;;;;29.53;18.07;;;;;;;-2.40;85.25;99294.21;1788434;79;25244;-67
2021/01/28 01:48:37;;;;;;;30.20;17.77;;;;;;;-2.40;85.34;99294.21;1788502;79;25268;-67
2021/01/28 01:51:25;;;;;;;28.40;17.53;;;;;;;-2.42;85.38;99283.11;1788534;80;25268;-67
2021/01/28 01:54:09;;;;;;;30.77;18.23;;;;;;;-2.43;85.40;99283.57;1788240;79;25806;-67
2021/01/28 01:56:49;;;;;;;31.33;18.43;;;;;;;-2.41;85.42;99273.23;1787389;80;25622;-67
2021/01/28 01:59:20;;;;;;;30.73;17.83;;;;;;;-2.50;85.47;99253.72;1788412;79;25699;-68
2021/01/28 02:02:10;;;;;;;27.40;17.57;;;;;;;-2.43;85.49;99263.39;1788421;80;26370;-68
2021/01/28 02:04:59;;;;;;;27.00;16.73;;;;;;;-2.43;85.54;99273.69;1788454;80;25256;-67
2021/01/28 02:07:50;;;;;;;28.13;18.47;;;;;;;-2.39;85.36;99266.28;1817319;77;27424;-68
2021/01/28 02:10:31;;;;;;;27.40;18.17;;;;;;;-2.44;85.56;99269.45;1718265;81;25206;-68
2021/01/28 02:13:16;;;;;;;26.93;17.10;;;;;;;-2.44;85.58;99257.86;1766158;80;25726;-67
2021/01/28 02:15:45;;;;;;;27.17;17.33;;;;;;;-2.41;85.74;99253.91;1758140;80;25710;-67
2021/01/28 02:18:12;;;;;;;26.60;17.30;;;;;;;-2.40;85.86;99247.84;1756623;80;25555;-68
2021/01/28 02:21:05;;;;;;;29.40;17.70;;;;;;;-2.33;85.95;99236.91;1803063;77;26913;-68
2021/01/28 02:23:46;;;;;;;28.80;17.20;;;;;;;-2.38;86.02;99237.08;1761883;80;25657;-69
2021/01/28 02:26:15;;;;;;;24.83;16.03;;;;;;;-2.33;86.04;99230.47;1787182;79;25693;-67
2021/01/28 02:28:42;;;;;;;24.83;15.83;;;;;;;-2.38;86.04;99207.87;1764469;80;25797;-67
2021/01/28 02:31:09;;;;;;;24.80;16.43;;;;;;;-2.37;86.02;99223.28;1755606;80;25262;-68
2021/01/28 02:33:53;;;;;;;26.20;16.57;;;;;;;-2.36;86.12;99217.26;1746047;81;25652;-68
2021/01/28 02:36:44;;;;;;;26.83;16.50;;;;;;;-2.35;86.03;99206.05;1810813;78;26944;-68
2021/01/28 02:39:28;;;;;;;21.23;14.77;;;;;;;-2.41;86.16;99198.53;1777513;80;25249;-66
2021/01/28 02:42:14;;;;;;;25.30;15.87;;;;;;;-2.42;86.35;99190.39;1789148;79;25703;-67
2021/01/28 02:44:41;;;;;;;24.77;15.03;;;;;;;-2.43;86.10;99191.27;1789025;80;25308;-67
2021/01/28 02:47:26;;;;;;;25.10;16.00;;;;;;;-2.47;86.07;99185.84;1789621;80;25284;-67
2021/01/28 02:50:26;;;;;;;26.50;16.40;;;;;;;-2.43;86.29;99187.41;1852789;77;27430;-69
2021/01/28 02:52:57;;;;;;;27.47;17.60;;;;;;;-2.52;86.34;99191.13;1824707;77;25329;-67
2021/01/28 02:55:26;;;;;;;26.57;17.47;;;;;;;-2.50;86.31;99196.23;1824863;78;25187;-67
2021/01/28 02:57:54;;;;;;;27.57;17.53;;;;;;;-2.48;86.30;99187.58;1824594;77;25690;-68
2021/01/28 03:00:33;;;;;;;27.10;16.20;;;;;;;-2.48;86.25;99184.14;1818246;78;25294;-68
2021/01/28 03:03:07;;;;;;;25.13;16.73;;;;;;;-2.49;86.15;99173.01;1824981;78;25620;-66
2021/01/28 03:05:47;;;;;;;25.03;16.00;;;;;;;-2.45;86.30;99184.05;1824463;77;25270;-67
2021/01/28 03:08:14;;;;;;;27.20;16.87;;;;;;;-2.45;86.21;99175.90;1824934;78;25346;-68
2021/01/28 03:10:44;;;;;;;24.47;17.10;;;;;;;-2.43;86.14;99175.40;1759165;78;25692;-68
2021/01/28 03:13:13;;;;;;;26.80;15.97;;;;;;;-2.39;86.06;99175.30;1822958;78;25254;-68
2021/01/28 03:15:44;;;;;;;26.63;17.40;;;;;;;-2.37;86.05;99169.20;1823474;77;25679;-68
2021/01/28 03:18:12;;;;;;;24.23;15.20;;;;;;;-2.37;86.05;99166.62;1824868;78;25262;-68
2021/01/28 03:20:42;;;;;;;24.50;15.57;;;;;;;-2.34;86.11;99163.12;1789110;78;25708;-68
2021/01/28 03:23:11;;;;;;;23.83;15.50;;;;;;;-2.32;86.12;99162.16;1790724;78;25243;-68
2021/01/28 03:25:54;;;;;;;22.70;15.33;;;;;;;-2.25;86.06;99149.47;1889616;76;27377;-67
2021/01/28 03:28:22;;;;;;;22.77;14.87;;;;;;;-2.28;86.15;99150.88;1851709;75;25226;-67
2021/01/28 03:30:52;;;;;;;22.90;15.47;;;;;;;-2.25;86.32;99152.05;1866504;75;25229;-67
2021/01/28 03:33:22;;;;;;;22.63;15.60;;;;;;;-2.24;86.27;99148.59;1898861;75;25273;-68
2021/01/28 03:35:55;;;;;;;21.93;13.93;;;;;;;-2.19;86.31;99160.04;1825836;78;25215;-67
2021/01/28 03:38:24;;;;;;;24.50;15.57;;;;;;;-2.19;86.11;99159.20;1795718;78;25381;-69
2021/01/28 03:40:53;;;;;;;22.17;14.80;;;;;;;-2.18;86.06;99160.41;1825708;78;25164;-68
2021/01/28 03:43:26;;;;;;;24.67;15.07;;;;;;;-2.14;86.07;99164.59;1797520;78;25673;-67
2021/01/28 03:45:54;;;;;;;21.57;14.40;;;;;;;-2.06;86.10;99169.50;1825691;78;25302;-67
2021/01/28 03:48:21;;;;;;;21.77;14.53;;;;;;;-1.99;86.16;99152.10;1793973;78;25685;-68
2021/01/28 03:51:07;;;;;;;19.17;13.30;;;;;;;-1.92;86.07;99153.56;1807540;78;25072;-67
2021/01/28 03:53:53;;;;;;;22.00;15.10;;;;;;;-1.88;85.95;99146.97;1823506;78;25692;-67
2021/01/28 03:56:22;;;;;;;21.10;13.17;;;;;;;-1.83;85.87;99144.66;1803396;79;25701;-68
2021/01/28 03:58:52;;;;;;;22.23;14.00;;;;;;;-1.81;85.80;99137.72;1816235;78;25776;-67
2021/01/28 04:01:35;;;;;;;21.47;13.87;;;;;;;-1.76;85.71;99110.90;1815784;77;27484;-68
2021/01/28 04:04:04;;;;;;;18.63;12.93;;;;;;;-1.77;85.75;99117.39;1786223;80;25574;-68
2021/01/28 04:06:49;;;;;;;21.47;14.63;;;;;;;-1.69;85.70;99111.06;1849564;75;26863;-67
2021/01/28 04:09:28;;;;;;;21.23;13.73;;;;;;;-1.69;85.72;99110.23;1819548;78;25251;-68
2021/01/28 04:11:57;;;;;;;17.27;12.30;;;;;;;-1.64;85.62;99121.22;1788846;77;25271;-68
2021/01/28 04:14:35;;;;;;;21.90;14.23;;;;;;;-1.59;85.57;99106.42;1814957;77;25247;-68
2021/01/28 04:17:05;;;;;;;22.00;14.60;;;;;;;-1.58;85.50;99100.80;1819979;77;25756;-67
2021/01/28 04:19:35;;;;;;;19.40;12.73;;;;;;;-1.52;85.56;99090.28;1820038;78;25208;-68
2021/01/28 04:22:06;;;;;;;19.90;13.47;;;;;;;-1.52;85.46;99071.77;1820007;77;25191;-68
2021/01/28 04:24:36;;;;;;;19.03;12.37;;;;;;;-1.53;85.44;99069.23;1819411;77;25225;-69
2021/01/28 04:27:04;;;;;;;20.70;14.83;;;;;;;-1.51;85.42;99067.01;1817186;77;25634;-68
2021/01/28 04:29:58;;;;;;;20.60;13.27;;;;;;;-1.47;85.27;99065.58;1885212;74;27497;-68
2021/01/28 04:32:29;;;;;;;20.60;14.23;;;;;;;-1.53;85.29;99049.89;1860241;75;25151;-68
2021/01/28 04:35:29;;;;;;;21.33;13.53;;;;;;;-1.47;85.33;99038.50;1890395;75;27471;-69
2021/01/28 04:37:57;;;;;;;19.43;13.50;;;;;;;-1.50;85.37;99049.33;1863974;76;25315;-68
2021/01/28 04:40:41;;;;;;;21.60;13.47;;;;;;;-1.49;85.27;99048.90;1863352;77;25621;-69
2021/01/28 04:43:35;;;;;;;21.03;13.33;;;;;;;-1.46;85.25;99043.59;1863755;76;25347;-69
2021/01/28 04:46:47;;;;;;;20.70;13.43;;;;;;;-1.48;85.01;99035.55;1863741;76;25311;-68
2021/01/28 04:49:34;;;;;;;17.87;12.43;;;;;;;-1.44;84.95;99040.53;1863241;77;25736;-68
2021/01/28 04:52:23;;;;;;;19.13;11.90;;;;;;;-1.47;84.77;99034.20;1863728;76;25255;-67
2021/01/28 04:55:16;;;;;;;21.87;13.80;;;;;;;-1.46;84.47;99032.45;1857677;76;25709;-67
2021/01/28 04:57:51;;;;;;;18.77;12.27;;;;;;;-1.42;84.55;99036.61;1863059;76;25331;-68
2021/01/28 05:00:22;;;;;;;20.63;13.23;;;;;;;-1.41;84.26;99033.94;1863035;77;25334;-68
2021/01/28 05:03:24;;;;;;;20.23;12.87;;;;;;;-1.38;84.24;99022.22;1784718;80;26913;-68
2021/01/28 05:06:08;;;;;;;19.87;13.00;;;;;;;-1.40;84.10;99018.04;1759542;81;25682;-67
2021/01/28 05:08:50;;;;;;;19.17;12.77;;;;;;;-1.41;83.76;99018.47;1747184;81;25217;-67
2021/01/28 05:11:38;;;;;;;22.20;13.77;;;;;;;-1.45;83.52;99010.47;1705535;82;25321;-67
2021/01/28 05:14:31;;;;;;;21.00;13.17;;;;;;;-1.40;83.30;99014.17;1889438;75;26959;-67
2021/01/28 05:17:20;;;;;;;22.23;14.20;;;;;;;-1.48;83.35;99009.29;1832467;77;25245;-68
2021/01/28 05:20:11;;;;;;;19.40;13.70;;;;;;;-1.47;83.25;99007.55;1853191;77;25257;-68
2021/01/28 05:23:05;;;;;;;19.23;13.93;;;;;;;-1.39;83.20;99001.22;1889540;75;27002;-69
2021/01/28 05:25:49;;;;;;;19.53;12.77;;;;;;;-1.44;83.11;99006.14;1860576;77;25166;-67
2021/01/28 05:28:44;;;;;;;19.67;12.77;;;;;;;-1.42;82.94;99014.22;1790902;77;26883;-69
2021/01/28 05:31:28;;;;;;;19.57;12.83;;;;;;;-1.49;83.01;99010.20;1730421;81;25227;-69
2021/01/28 05:34:26;;;;;;;21.10;13.03;;;;;;;-1.51;83.08;99006.82;1731991;81;25590;-68
2021/01/28 05:37:10;;;;;;;17.83;12.83;;;;;;;-1.48;83.18;99002.84;1757285;80;25246;-69
2021/01/28 05:40:21;;;;;;;21.70;13.13;;;;;;;-1.41;83.16;98991.38;1770508;80;28224;-68
2021/01/28 05:42:55;;;;;;;21.87;13.27;;;;;;;-1.45;83.15;98982.55;1740932;81;25806;-68
2021/01/28 05:45:38;;;;;;;20.70;13.63;;;;;;;-1.45;83.05;98976.94;1705273;82;25838;-69
2021/01/28 05:48:31;;;;;;;20.97;12.30;;;;;;;-1.42;83.10;98977.28;1705060;84;25742;-69
2021/01/28 05:51:21;;;;;;;21.63;13.27;;;;;;;-1.44;83.14;98970.03;1731540;81;25234;-69
2021/01/28 05:54:04;;;;;;;20.67;12.33;;;;;;;-1.42;83.17;98969.08;1735764;82;25268;-69
2021/01/28 05:57:04;;;;;;;21.23;12.23;;;;;;;-1.38;83.26;98970.63;1889567;74;26786;-67
2021/01/28 06:00:01;;;;;;;21.83;12.97;;;;;;;-1.40;83.16;98969.03;1858952;77;25256;-68
2021/01/28 06:03:15;;;;;;;19.50;11.97;;;;;;;-1.39;83.14;98975.84;1825295;77;25263;-70
2021/01/28 06:06:24;;;;;;;19.23;12.67;;;;;;;-1.40;83.17;98969.03;1826155;78;25247;-68
2021/01/28 06:09:38;;;;;;;20.00;12.77;;;;;;;-1.35;83.03;98961.94;1823601;77;25372;-68
2021/01/28 06:12:49;;;;;;;19.53;12.10;;;;;;;-1.35;83.09;98959.36;1820134;77;25630;-69
2021/01/28 06:16:07;;;;;;;17.50;11.80;;;;;;;-1.29;83.30;98951.39;1801705;78;27714;-69
2021/01/28 06:19:01;;;;;;;18.73;12.33;;;;;;;-1.34;83.38;98947.70;1758500;81;25289;-69
2021/01/28 06:21:59;;;;;;;17.63;12.27;;;;;;;-1.27;83.23;98951.30;1774056;80;25648;-68
2021/01/28 06:25:05;;;;;;;20.87;12.97;;;;;;;-1.22;83.38;98943.78;1797018;79;27026;-69
2021/01/28 06:28:01;;;;;;;18.93;12.87;;;;;;;-1.19;83.40;98949.25;1732275;82;25318;-69
2021/01/28 06:30:51;;;;;;;20.30;12.53;;;;;;;-1.17;83.43;98952.64;1753978;81;25316;-69
2021/01/28 06:33:54;;;;;;;19.67;13.13;;;;;;;-1.09;83.56;98945.86;1889466;76;26848;-68
2021/01/28 06:37:24;;;;;;;17.53;11.40;;;;;;;-1.09;83.56;98951.02;1858190;77;25249;-68
2021/01/28 06:40:20;;;;;;;18.00;11.47;;;;;;;-1.02;83.62;98934.37;1859841;77;25222;-69
2021/01/28 06:43:09;;;;;;;17.70;11.87;;;;;;;-0.94;83.57;98933.60;1826696;77;25812;-69
2021/01/28 06:45:58;;;;;;;20.83;14.27;;;;;;;-0.90;83.40;98937.75;1854469;77;25249;-68
2021/01/28 06:48:32;;;;;;;18.93;14.10;;;;;;;-0.85;83.47;98930.66;1858717;77;25340;-69
2021/01/28 06:51:31;;;;;;;19.00;12.90;;;;;;;-0.80;83.42;98923.55;1859082;77;25280;-69
2021/01/28 06:54:24;;;;;;;18.63;13.40;;;;;;;-0.78;83.46;98913.98;1860293;77;25103;-69
2021/01/28 06:57:18;;;;;;;17.33;12.43;;;;;;;-0.69;83.38;98908.88;1849923;76;27422;-69
2021/01/28 07:00:40;;;;;;;20.27;14.77;;;;;;;-0.76;83.52;98912.17;1819828;77;25268;-70
2021/01/28 07:03:36;;;;;;;19.30;12.80;;;;;;;-0.68;83.48;98909.73;1809511;77;25108;-69
2021/01/28 07:06:32;;;;;;;23.23;14.50;;;;;;;-0.68;83.66;98905.86;1815240;77;25685;-69
2021/01/28 07:09:25;;;;;;;23.57;15.27;;;;;;;-0.62;83.44;98912.89;1788021;78;25721;-70
2021/01/28 07:11:58;;;;;;;21.23;14.80;;;;;;;-0.59;83.53;98913.20;1785624;79;25680;-69
2021/01/28 07:14:35;;;;;;;21.13;12.70;;;;;;;-0.50;83.76;98905.49;1807516;78;27008;-69
2021/01/28 07:17:27;;;;;;;19.93;13.83;;;;;;;-0.52;83.83;98908.17;1754387;81;25692;-69
2021/01/28 07:19:58;;;;;;;21.17;14.77;;;;;;;-0.50;84.04;98906.35;1747638;81;25347;-69
2021/01/28 07:22:39;;;;;;;23.00;16.30;;;;;;;-0.44;84.01;98896.19;1702989;80;25422;-69
2021/01/28 07:25:31;;;;;;;25.90;17.70;;;;;;;-0.45;84.12;98887.61;1743821;81;25239;-69
2021/01/28 07:28:15;;;;;;;35.23;20.50;;;;;;;-0.39;84.72;98878.30;1729758;81;25295;-69
2021/01/28 07:30:46;;;;;;;27.10;17.93;;;;;;;-0.32;84.48;98876.25;1724137;82;25758;-69
2021/01/28 07:33:29;;;;;;;24.93;17.73;;;;;;;-0.18;84.72;98862.73;1875438;75;26834;-69
2021/01/28 07:36:30;;;;;;;20.80;14.90;;;;;;;-0.06;84.89;98859.56;1849891;76;26776;-69
2021/01/28 07:39:33;;;;;;;20.47;14.60;;;;;;;-0.10;84.80;98863.65;1819622;77;25239;-68
2021/01/28 07:42:31;;;;;;;20.03;14.10;;;;;;;-0.02;84.82;98862.41;1812620;77;25633;-71
2021/01/28 07:45:35;;;;;;;17.03;12.23;;;;;;;0.03;84.97;98860.88;1812837;78;25275;-69
2021/01/28 07:48:29;;;;;;;17.20;13.27;;;;;;;0.03;85.21;98860.05;1819815;78;25246;-68
2021/01/28 07:51:35;;;;;;;18.60;12.60;;;;;;;0.10;85.20;98858.84;1817343;77;26815;-70
2021/01/28 07:54:22;;;;;;;20.67;14.50;;;;;;;-0.01;85.19;98859.36;1788222;79;25685;-69
2021/01/28 07:57:11;;;;;;;26.70;18.93;;;;;;;0.11;85.35;98857.95;1817263;77;26941;-69
2021/01/28 07:59:54;;;;;;;22.23;16.47;;;;;;;0.10;85.51;98858.84;1788171;79;25321;-69
2021/01/28 08:02:34;;;;;;;18.10;13.00;;;;;;;0.13;85.75;98847.90;1782991;80;25263;-69
2021/01/28 08:05:08;;;;;;;18.97;13.47;;;;;;;0.16;85.78;98848.22;1788352;80;25685;-69
2021/01/28 08:07:39;;;;;;;20.10;13.63;;;;;;;0.24;86.02;98846.58;1787942;79;25193;-68
2021/01/28 08:10:29;;;;;;;31.73;17.17;;;;;;;0.31;86.00;98848.78;1744610;79;25264;-68
2021/01/28 08:13:28;;;;;;;19.23;13.07;;;;;;;0.44;86.14;98837.86;1763306;80;25358;-69
2021/01/28 08:16:06;;;;;;;14.77;11.10;;;;;;;0.56;85.96;98832.07;1787265;79;25272;-69
2021/01/28 08:18:39;;;;;;;15.67;11.60;;;;;;;0.62;85.75;98829.63;1787112;79;25363;-69
2021/01/28 08:21:23;;;;;;;32.70;17.70;;;;;;;0.61;85.69;98827.50;1788374;80;25289;-69
2021/01/28 08:23:50;;;;;;;24.70;14.67;;;;;;;0.66;85.79;98824.23;1788410;80;25729;-68
2021/01/28 08:26:28;;;;;;;17.13;12.27;;;;;;;0.69;85.58;98820.66;1788379;79;25189;-68
2021/01/28 08:29:19;;;;;;;20.17;13.23;;;;;;;0.80;85.50;98822.70;1761242;79;25357;-68
2021/01/28 08:31:50;;;;;;;16.20;11.70;;;;;;;0.81;85.41;98815.33;1753950;80;25319;-68
2021/01/28 08:34:21;;;;;;;20.33;12.87;;;;;;;0.79;85.42;98807.63;1753866;81;25067;-68
2021/01/28 08:37:02;;;;;;;29.53;17.37;;;;;;;0.90;85.33;98809.66;1818362;78;27036;-68
2021/01/28 08:39:34;;;;;;;20.73;13.17;;;;;;;0.81;85.33;98817.45;1789561;79;25864;-68
2021/01/28 08:42:14;;;;;;;14.30;11.07;;;;;;;0.88;85.18;98814.09;1789674;80;25248;-68
2021/01/28 08:44:43;;;;;;;15.57;12.07;;;;;;;0.95;85.03;98805.09;1789503;79;25281;-67
2021/01/28 08:47:25;;;;;;;17.97;13.50;;;;;;;1.02;85.09;98796.11;1789211;80;25683;-68
2021/01/28 08:50:13;;;;;;;15.17;12.10;;;;;;;1.03;85.20;98787.41;1789498;79;25399;-68
2021/01/28 08:52:42;;;;;;;14.40;11.57;;;;;;;1.16;85.00;98788.91;1789577;80;25767;-67
2021/01/28 08:55:14;;;;;;;17.07;13.47;;;;;;;1.13;84.99;98781.30;1789661;79;25257;-68
2021/01/28 08:57:41;;;;;;;11.50;9.50;;;;;;;1.14;85.01;98780.83;1762905;80;25531;-68
2021/01/28 09:00:09;;;;;;;18.53;14.00;;;;;;;1.20;84.86;98767.09;1789013;79;25277;-68
2021/01/28 09:02:40;;;;;;;34.07;25.47;;;;;;;1.21;84.92;98770.54;1789522;79;25079;-70
2021/01/28 09:05:22;;;;;;;112.27;67.17;;;;;;;1.30;84.95;98763.55;1762718;80;25079;-69
2021/01/28 09:07:58;;;;;;;21.17;16.63;;;;;;;1.31;85.00;98769.13;1789482;79;25349;-69
2021/01/28 09:10:40;;;;;;;14.90;11.63;;;;;;;1.40;84.73;98757.43;1789551;79;25626;-68
2021/01/28 09:13:22;;;;;;;18.67;11.73;;;;;;;1.45;84.56;98751.06;1789533;80;25619;-68
2021/01/28 09:16:12;;;;;;;15.50;11.47;;;;;;;1.46;84.47;98755.81;1789554;80;25284;-67
2021/01/28 09:18:44;;;;;;;14.63;11.57;;;;;;;1.52;84.15;98748.16;1789516;79;25277;-67
2021/01/28 09:21:17;;;;;;;13.70;10.80;;;;;;;1.59;84.01;98745.59;1789457;80;25747;-68
2021/01/28 09:24:14;;;;;;;17.67;13.60;;;;;;;1.64;83.94;98750.06;1789577;80;25323;-67
2021/01/28 09:26:41;;;;;;;24.47;16.70;;;;;;;1.61;84.01;98752.81;1789168;79;25707;-68
2021/01/28 09:29:24;;;;;;;15.23;11.77;;;;;;;1.58;84.03;98749.13;1745187;80;25185;-68
2021/01/28 09:31:51;;;;;;;17.10;14.17;;;;;;;1.55;84.23;98747.52;1781742;79;25628;-68
2021/01/28 09:34:29;;;;;;;15.83;13.70;;;;;;;1.61;84.45;98745.05;1744879;80;25553;-68
2021/01/28 09:37:07;;;;;;;14.50;11.53;;;;;;;1.57;84.59;98747.44;1784527;80;25234;-68
2021/01/28 09:39:43;;;;;;;15.90;11.67;;;;;;;1.53;84.82;98742.89;1784209;80;25130;-68
2021/01/28 09:45:10;;;;;;;15.00;11.93;;;;;;;1.62;85.02;98730.70;1846613;76;27001;-69
2021/01/28 09:47:37;;;;;;;17.50;14.77;;;;;;;1.60;84.93;98729.13;1801898;78;25285;-67
2021/01/28 09:50:10;;;;;;;16.47;14.13;;;;;;;1.65;84.84;98720.64;1787711;79;25269;-66
2021/01/28 09:52:44;;;;;;;17.93;13.80;;;;;;;1.66;84.81;98715.38;1787550;79;25268;-67
2021/01/28 09:55:18;;;;;;;17.53;13.50;;;;;;;1.76;84.78;98711.81;1787594;80;25184;-67
2021/01/28 09:57:44;;;;;;;14.93;11.77;;;;;;;1.84;84.82;98708.33;1787559;80;25649;-68
2021/01/28 10:00:15;;;;;;;15.80;11.30;;;;;;;1.96;84.56;98711.13;1787572;80;25715;-68
2021/01/28 10:02:55;;;;;;;12.03;9.87;;;;;;;2.00;84.33;98708.28;1776103;78;25187;-70
2021/01/28 10:05:24;;;;;;;19.07;14.57;;;;;;;2.04;83.81;98703.75;1787552;80;25194;-71
2021/01/28 10:07:51;;;;;;;18.80;14.83;;;;;;;2.07;84.03;98715.72;1787590;79;25288;-72
2021/01/28 10:10:21;;;;;;;22.13;17.73;;;;;;;2.15;84.18;98716.94;1801191;78;25212;-71
2021/01/28 10:12:51;;;;;;;14.93;11.63;;;;;;;2.22;83.98;98711.77;1791395;78;25146;-71
2021/01/28 10:15:18;;;;;;;16.37;12.30;;;;;;;2.29;83.58;98704.94;1787564;79;25250;-71
2021/01/28 10:17:45;;;;;;;16.63;12.00;;;;;;;2.30;83.37;98704.02;1797820;77;25171;-70
2021/01/28 10:20:13;;;;;;;14.97;12.33;;;;;;;2.29;83.44;98690.66;1788308;78;25272;-70
2021/01/28 10:22:41;;;;;;;12.30;10.60;;;;;;;2.37;83.17;98681.49;1819886;78;25203;-71
2021/01/28 10:25:11;;;;;;;15.17;13.30;;;;;;;2.44;82.99;98678.08;1807919;78;25261;-71
2021/01/28 10:27:38;;;;;;;12.37;10.70;;;;;;;2.46;82.98;98671.02;1802710;77;25063;-71
2021/01/28 10:30:06;;;;;;;12.20;9.20;;;;;;;2.52;82.78;98679.75;1782960;79;25249;-72
2021/01/28 10:32:33;;;;;;;15.27;9.90;;;;;;;2.59;82.08;98673.26;1779115;79;25375;-71
2021/01/28 10:35:00;;;;;;;13.03;10.13;;;;;;;2.63;81.65;98676.53;1781208;79;25337;-72
2021/01/28 10:37:27;;;;;;;15.03;11.30;;;;;;;2.66;81.45;98674.20;1766014;79;25365;-71
2021/01/28 10:39:53;;;;;;;14.83;11.30;;;;;;;2.67;81.17;98668.09;1748069;81;25096;-71
2021/01/28 10:42:38;;;;;;;12.60;9.67;;;;;;;2.65;81.17;98677.70;1747878;81;25773;-71
2021/01/28 10:45:04;;;;;;;13.10;10.00;;;;;;;2.63;80.99;98675.23;1753785;80;25694;-72
2021/01/28 10:47:31;;;;;;;13.53;10.77;;;;;;;2.60;80.65;98665.85;1783489;79;25316;-72
2021/01/28 10:49:57;;;;;;;13.23;10.37;;;;;;;2.64;80.41;98669.56;1787510;79;25529;-73
2021/01/28 10:52:24;;;;;;;12.47;10.43;;;;;;;2.64;80.36;98660.01;1787406;79;25604;-73
2021/01/28 10:54:51;;;;;;;14.10;11.27;;;;;;;2.73;80.13;98653.41;1754766;80;25259;-74
2021/01/28 10:57:17;;;;;;;16.60;12.43;;;;;;;2.76;80.14;98641.55;1783631;79;25131;-74
2021/01/28 10:59:44;;;;;;;13.63;10.73;;;;;;;2.81;80.46;98641.27;1787050;80;25282;-74
2021/01/28 11:02:11;;;;;;;13.73;10.77;;;;;;;2.87;80.76;98638.31;1786971;80;25249;-73
2021/01/28 11:04:37;;;;;;;13.67;11.63;;;;;;;3.01;79.88;98629.66;1782220;80;25403;-74
2021/01/28 11:07:04;;;;;;;13.27;10.33;;;;;;;3.03;79.62;98629.08;1786421;79;25733;-74
2021/01/28 11:09:31;;;;;;;13.30;11.10;;;;;;;3.05;79.70;98624.17;1786840;80;25297;-74
2021/01/28 11:11:58;;;;;;;13.53;10.63;;;;;;;3.10;79.09;98626.02;1753075;80;25285;-75
2021/01/28 11:14:25;;;;;;;13.50;11.00;;;;;;;3.16;79.33;98620.89;1778341;79;25189;-73
2021/01/28 11:16:52;;;;;;;14.63;12.27;;;;;;;3.18;79.10;98613.00;1750309;80;25216;-73
2021/01/28 11:19:19;;;;;;;15.20;12.00;;;;;;;3.22;79.19;98610.11;1786892;79;25277;-72
2021/01/28 11:21:46;;;;;;;13.63;12.07;;;;;;;3.30;78.80;98610.46;1781910;79;25226;-71
2021/01/28 11:24:13;;;;;;;12.23;10.53;;;;;;;3.29;79.06;98602.28;1785414;80;25139;-72
2021/01/28 11:26:40;;;;;;;15.33;12.63;;;;;;;3.34;78.85;98597.63;1782955;79;25723;-72
2021/01/28 11:29:06;;;;;;;14.40;10.80;;;;;;;3.39;78.69;98594.73;1787053;79;25707;-73
2021/01/28 11:31:35;;;;;;;14.53;12.20;;;;;;;3.41;77.58;98589.44;1782577;79;25703;-72
2021/01/28 11:34:03;;;;;;;16.27;12.73;;;;;;;3.43;77.51;98584.49;1785309;79;25368;-72
2021/01/28 11:36:31;;;;;;;15.93;12.13;;;;;;;3.42;77.47;98584.14;1782372;79;25246;-71
2021/01/28 11:38:58;;;;;;;15.47;12.17;;;;;;;3.41;77.50;98586.84;1787014;80;25316;-72
2021/01/28 11:41:25;;;;;;;12.43;10.23;;;;;;;3.40;77.51;98583.38;1786945;79;25600;-72
2021/01/28 11:43:52;;;;;;;12.33;10.73;;;;;;;3.38;77.70;98581.36;1788883;78;25253;-72
2021/01/28 11:46:19;;;;;;;173.50;82.53;;;;;;;3.38;77.60;98583.95;1795736;78;25293;-72
2021/01/28 11:48:45;;;;;;;89.50;44.97;;;;;;;3.36;77.56;98578.03;1795756;78;25210;-73
2021/01/28 11:51:12;;;;;;;130.07;71.50;;;;;;;3.34;77.41;98582.50;1795598;78;25543;-73
2021/01/28 11:53:40;;;;;;;71.07;36.13;;;;;;;3.32;76.88;98577.88;1795173;78;25336;-74
2021/01/28 11:56:07;;;;;;;88.53;44.73;;;;;;;3.27;76.74;98570.38;1795486;78;25386;-72
2021/01/28 11:58:34;;;;;;;210.40;98.80;;;;;;;3.21;77.31;98566.86;1795805;78;25324;-72
2021/01/28 12:01:02;;;;;;;79.90;45.83;;;;;;;3.21;77.50;98560.84;1795563;78;25272;-71
2021/01/28 12:03:29;;;;;;;52.03;26.23;;;;;;;3.18;77.65;98552.76;1795915;78;25257;-72
2021/01/28 12:05:56;;;;;;;32.90;18.90;;;;;;;3.15;77.82;98558.14;1795619;78;25157;-71
2021/01/28 12:08:23;;;;;;;18.80;12.37;;;;;;;3.11;77.92;98563.19;1795513;78;25537;-71
2021/01/28 12:10:50;;;;;;;33.00;17.90;;;;;;;3.11;77.87;98552.80;1789042;79;25285;-72